Tropical Cyclones
[Index]
Main Index Home Page Stock Weather Photos Extreme Storms Discussion Storm News and Storm Chasing Reports Tropical Cyclones / Hurricanes / Typhoons Weather Data and Links Wild Fires / Bushfires Weather Observation Techniques Weather Picture Catalogue Tornado Pictures and Reports Stock Video Footage and DVDs for sale
Season 2019-2020 Tropical Cyclone FRANCISCO Track Map
Season 2019-2020 Summaries (Operational Data): [AU] [SIO] [SPAC] [SH]
<<- Previous TC | 2019-2020 Season | Next TC ->>

click for intensity scale information  Lat/long Grid: Show Hide

 Date Labels: Show Hide

Operational Tropical Cyclone Data

Name: FRANCISCO
Number: 2013

31 Jan 2020 00:00 UTC to 15 Feb 2020 12:00 UTC

    date/time    lat    long     hPa   cat  kts
2020-01-31 00    7.3    61.4    1010         15          
2020-01-31 06    7.5    61.9    1010         15          
2020-01-31 12    7.9    63.7    1010         15          
2020-01-31 18    8.2    63.5    1010         15          
2020-02-01 00    8.5    63.2    1010         15          
2020-02-01 06    9.2    62.5    1010         15          
2020-02-01 12    9.9    62.3    1010         15          
2020-02-01 18   11.2    62.5    1009         15          
2020-02-02 00   11.8    63.4    1010         15          
2020-02-02 06   11.6    60.0    1009         15          
2020-02-02 12   11.8    60.6    1005         20          
2020-02-02 18   12.0    61.2    1006         20          
2020-02-03 00   12.3    61.9    1006         20          
2020-02-03 06   12.5    62.8    1006         20          
2020-02-03 12   13.3    63.8    1004         25          
2020-02-03 18   14.0    64.6    1006         25          
2020-02-04 00   14.3    64.9    1004         25          
2020-02-04 06   14.6    65.1    1003         25          
2020-02-04 12   14.9    65.3    1002         30          
2020-02-04 18   15.8    66.4    1002    1    35          
2020-02-05 00   16.4    67.2    1000    1    35          
2020-02-05 06   16.9    68.3     996    1    40          
2020-02-05 12   17.3    69.4     994    1    45          
2020-02-05 18   17.6    70.3     996    1    40          
2020-02-06 00   18.2    71.0     995    1    40          
2020-02-06 06   19.1    71.7    1000    1    35          
2020-02-06 12   19.8    71.8    1001         30          
2020-02-06 18   20.5    71.5    1001         30          
2020-02-07 00   20.5    71.1    1000         30          
2020-02-07 06   20.3    70.5    1002         30          
2020-02-07 12   20.3    69.6    1002         25          
2020-02-07 18   20.4    68.7    1005         25          
2020-02-08 00   20.3    68.0    1004         20          
2020-02-08 06   20.1    67.6    1004         20          
2020-02-08 12   20.1    67.4    1007         20          
2020-02-08 18   20.2    67.3    1006         20          
2020-02-09 00   20.6    67.2    1004         20          
2020-02-09 06   20.9    67.0    1004         20          
2020-02-09 12   21.3    66.6    1003         25          
2020-02-09 18   21.9    65.8    1005         25          
2020-02-10 00   21.9    64.7    1004         25          
2020-02-10 06   21.6    63.4    1004         25          
2020-02-10 12   21.4    62.0    1004         25          
2020-02-10 18   20.8    60.9    1004         25          
2020-02-11 00   20.1    59.8    1004         25          
2020-02-11 06   19.6    58.9    1004         25          
2020-02-11 12   19.2    57.8    1002         25          
2020-02-11 18   18.9    56.6    1002         25          
2020-02-12 00   18.5    55.5    1002         25          
2020-02-12 06   18.2    54.7    1004         25          
2020-02-12 12   18.1    53.6    1004         25          
2020-02-12 18   18.1    52.4    1007         25          
2020-02-13 00   18.1    51.5    1006         25          
2020-02-13 06   18.0    50.8    1002    1    35          
2020-02-13 12   18.0    50.4    1002    1    35          
2020-02-13 18   18.3    49.9    1005    1    40          
2020-02-14 00   18.6    49.8    1003    1    40          
2020-02-14 06   18.9    49.6    1003    1    40          
2020-02-14 12   19.1    49.3    1005    1    35          
2020-02-14 18   19.3    49.0    1005    1    35          
2020-02-15 00   19.6    48.8    1005         30          
2020-02-15 06   20.0    48.6    1007         30          
2020-02-15 12   20.0    48.3    1007         25          
Winds are 10-min average.

Tropical cyclone tracks developed by Michael Bath using operational warnings and advisories and Google Maps.


[Australian Severe Weather index] [Copyright Notice] [Email Contacts] [Search This Site] [Privacy Policy]
Document: tropical_cyclone_francisco.htm Updated: 11 March 2020